sensor_id;sensor_type;location;lat;lon;timestamp;temperature;humidity
69225;DHT22;56333;51.306;17.056;2024-02-16T00:00:51;9.97;78.32
69225;DHT22;56333;51.306;17.056;2024-02-16T00:02:21;9.98;78.32
69225;DHT22;56333;51.306;17.056;2024-02-16T00:03:49;9.98;78.32
69225;DHT22;56333;51.306;17.056;2024-02-16T00:05:18;9.99;78.28
69225;DHT22;56333;51.306;17.056;2024-02-16T00:06:47;9.96;78.28
69225;DHT22;56333;51.306;17.056;2024-02-16T00:08:16;9.98;78.28
69225;DHT22;56333;51.306;17.056;2024-02-16T00:09:45;9.97;78.28
69225;DHT22;56333;51.306;17.056;2024-02-16T00:11:14;9.96;78.20
69225;DHT22;56333;51.306;17.056;2024-02-16T00:12:42;9.94;78.20
69225;DHT22;56333;51.306;17.056;2024-02-16T00:14:11;9.95;78.22
69225;DHT22;56333;51.306;17.056;2024-02-16T00:15:40;9.96;78.20
69225;DHT22;56333;51.306;17.056;2024-02-16T00:17:08;9.94;78.20
69225;DHT22;56333;51.306;17.056;2024-02-16T00:18:37;9.96;78.20
69225;DHT22;56333;51.306;17.056;2024-02-16T00:20:07;9.97;78.20
69225;DHT22;56333;51.306;17.056;2024-02-16T00:21:37;9.96;78.10
69225;DHT22;56333;51.306;17.056;2024-02-16T00:23:06;9.94;78.10
69225;DHT22;56333;51.306;17.056;2024-02-16T00:24:34;9.93;78.13
69225;DHT22;56333;51.306;17.056;2024-02-16T00:26:04;9.94;78.10
69225;DHT22;56333;51.306;17.056;2024-02-16T00:27:32;9.94;78.10
69225;DHT22;56333;51.306;17.056;2024-02-16T00:29:01;9.93;78.00
69225;DHT22;56333;51.306;17.056;2024-02-16T00:30:29;9.93;77.97
69225;DHT22;56333;51.306;17.056;2024-02-16T00:31:58;9.93;77.97
69225;DHT22;56333;51.306;17.056;2024-02-16T00:33:27;9.92;77.90
69225;DHT22;56333;51.306;17.056;2024-02-16T00:34:55;9.90;77.90
69225;DHT22;56333;51.306;17.056;2024-02-16T00:36:24;9.86;77.80
69225;DHT22;56333;51.306;17.056;2024-02-16T00:37:55;9.82;77.80
69225;DHT22;56333;51.306;17.056;2024-02-16T00:39:23;9.79;77.90
69225;DHT22;56333;51.306;17.056;2024-02-16T00:40:52;9.78;77.90
69225;DHT22;56333;51.306;17.056;2024-02-16T00:42:21;9.76;77.90
69225;DHT22;56333;51.306;17.056;2024-02-16T00:43:52;9.73;77.90
69225;DHT22;56333;51.306;17.056;2024-02-16T00:45:21;9.69;77.88
69225;DHT22;56333;51.306;17.056;2024-02-16T00:46:50;9.64;77.90
69225;DHT22;56333;51.306;17.056;2024-02-16T00:48:19;9.63;77.97
69225;DHT22;56333;51.306;17.056;2024-02-16T00:49:49;9.58;78.00
69225;DHT22;56333;51.306;17.056;2024-02-16T00:51:17;9.56;78.07
69225;DHT22;56333;51.306;17.056;2024-02-16T00:52:47;9.53;78.07
69225;DHT22;56333;51.306;17.056;2024-02-16T00:54:16;9.50;78.10
69225;DHT22;56333;51.306;17.056;2024-02-16T00:55:46;9.45;78.18
69225;DHT22;56333;51.306;17.056;2024-02-16T00:57:15;9.44;78.20
69225;DHT22;56333;51.306;17.056;2024-02-16T00:58:44;9.41;78.28
69225;DHT22;56333;51.306;17.056;2024-02-16T01:00:14;9.39;78.25
69225;DHT22;56333;51.306;17.056;2024-02-16T01:01:44;9.36;78.30
69225;DHT22;56333;51.306;17.056;2024-02-16T01:03:13;9.32;78.32
69225;DHT22;56333;51.306;17.056;2024-02-16T01:04:42;9.29;78.40
69225;DHT22;56333;51.306;17.056;2024-02-16T01:06:10;9.23;78.38
69225;DHT22;56333;51.306;17.056;2024-02-16T01:07:39;9.21;78.40
69225;DHT22;56333;51.306;17.056;2024-02-16T01:09:07;9.16;78.40
69225;DHT22;56333;51.306;17.056;2024-02-16T01:10:37;9.11;78.50
69225;DHT22;56333;51.306;17.056;2024-02-16T01:12:06;9.11;78.50
69225;DHT22;56333;51.306;17.056;2024-02-16T01:13:35;9.06;78.65
69225;DHT22;56333;51.306;17.056;2024-02-16T01:15:06;9.03;78.72
69225;DHT22;56333;51.306;17.056;2024-02-16T01:16:35;9.00;78.82
69225;DHT22;56333;51.306;17.056;2024-02-16T01:18:05;8.97;78.95
69225;DHT22;56333;51.306;17.056;2024-02-16T01:19:33;8.93;78.93
69225;DHT22;56333;51.306;17.056;2024-02-16T01:21:02;8.90;79.00
69225;DHT22;56333;51.306;17.056;2024-02-16T01:22:32;8.88;79.13
69225;DHT22;56333;51.306;17.056;2024-02-16T01:24:02;8.85;79.13
69225;DHT22;56333;51.306;17.056;2024-02-16T01:25:33;8.82;79.18
69225;DHT22;56333;51.306;17.056;2024-02-16T01:27:02;8.79;79.32
69225;DHT22;56333;51.306;17.056;2024-02-16T01:28:31;8.75;79.35
69225;DHT22;56333;51.306;17.056;2024-02-16T01:29:59;8.72;79.43
69225;DHT22;56333;51.306;17.056;2024-02-16T01:31:28;8.72;79.50
69225;DHT22;56333;51.306;17.056;2024-02-16T01:32:56;8.70;79.55
69225;DHT22;56333;51.306;17.056;2024-02-16T01:34:27;8.66;79.60
69225;DHT22;56333;51.306;17.056;2024-02-16T01:35:55;8.65;79.65
69225;DHT22;56333;51.306;17.056;2024-02-16T01:37:25;8.63;79.68
69225;DHT22;56333;51.306;17.056;2024-02-16T01:38:53;8.60;79.78
69225;DHT22;56333;51.306;17.056;2024-02-16T01:40:22;8.59;79.78
69225;DHT22;56333;51.306;17.056;2024-02-16T01:41:51;8.57;79.82
69225;DHT22;56333;51.306;17.056;2024-02-16T01:43:21;8.56;79.97
69225;DHT22;56333;51.306;17.056;2024-02-16T01:44:49;8.52;80.00
69225;DHT22;56333;51.306;17.056;2024-02-16T01:46:18;8.52;80.03
69225;DHT22;56333;51.306;17.056;2024-02-16T01:47:49;8.49;80.10
69225;DHT22;56333;51.306;17.056;2024-02-16T01:49:20;8.48;80.10
69225;DHT22;56333;51.306;17.056;2024-02-16T01:50:49;8.49;80.20
69225;DHT22;56333;51.306;17.056;2024-02-16T01:52:19;8.46;80.25
69225;DHT22;56333;51.306;17.056;2024-02-16T01:53:47;8.44;80.32
69225;DHT22;56333;51.306;17.056;2024-02-16T01:55:15;8.39;80.32
69225;DHT22;56333;51.306;17.056;2024-02-16T01:56:44;8.38;80.40
69225;DHT22;56333;51.306;17.056;2024-02-16T01:58:14;8.35;80.50
69225;DHT22;56333;51.306;17.056;2024-02-16T01:59:43;8.34;80.53
69225;DHT22;56333;51.306;17.056;2024-02-16T02:01:12;8.32;80.65
69225;DHT22;56333;51.306;17.056;2024-02-16T02:02:40;8.31;80.60
69225;DHT22;56333;51.306;17.056;2024-02-16T02:04:10;8.27;80.60
69225;DHT22;56333;51.306;17.056;2024-02-16T02:05:46;8.27;80.65
69225;DHT22;56333;51.306;17.056;2024-02-16T02:07:16;8.26;80.70
69225;DHT22;56333;51.306;17.056;2024-02-16T02:08:50;8.25;80.70
69225;DHT22;56333;51.306;17.056;2024-02-16T02:10:18;8.23;80.78
69225;DHT22;56333;51.306;17.056;2024-02-16T02:11:48;8.23;80.85
69225;DHT22;56333;51.306;17.056;2024-02-16T02:13:17;8.22;80.88
69225;DHT22;56333;51.306;17.056;2024-02-16T02:14:46;8.22;80.95
69225;DHT22;56333;51.306;17.056;2024-02-16T02:16:14;8.19;80.90
69225;DHT22;56333;51.306;17.056;2024-02-16T02:17:43;8.18;80.90
69225;DHT22;56333;51.306;17.056;2024-02-16T02:19:12;8.17;80.97
69225;DHT22;56333;51.306;17.056;2024-02-16T02:20:41;8.16;81.00
69225;DHT22;56333;51.306;17.056;2024-02-16T02:22:15;8.16;81.07
69225;DHT22;56333;51.306;17.056;2024-02-16T02:23:44;8.15;81.05
69225;DHT22;56333;51.306;17.056;2024-02-16T02:25:12;8.13;81.05
69225;DHT22;56333;51.306;17.056;2024-02-16T02:26:41;8.12;81.10
69225;DHT22;56333;51.306;17.056;2024-02-16T02:28:10;8.11;81.18
69225;DHT22;56333;51.306;17.056;2024-02-16T02:29:39;8.11;81.20
69225;DHT22;56333;51.306;17.056;2024-02-16T02:31:09;8.08;81.35
69225;DHT22;56333;51.306;17.056;2024-02-16T02:32:38;8.07;81.35
69225;DHT22;56333;51.306;17.056;2024-02-16T02:34:07;8.09;81.38
69225;DHT22;56333;51.306;17.056;2024-02-16T02:35:36;8.07;81.40
69225;DHT22;56333;51.306;17.056;2024-02-16T02:37:05;8.08;81.40
69225;DHT22;56333;51.306;17.056;2024-02-16T02:38:34;8.08;81.38
69225;DHT22;56333;51.306;17.056;2024-02-16T02:40:03;8.07;81.40
69225;DHT22;56333;51.306;17.056;2024-02-16T02:41:34;8.07;81.45
69225;DHT22;56333;51.306;17.056;2024-02-16T02:43:00;8.02;81.40
69225;DHT22;56333;51.306;17.056;2024-02-16T02:44:30;8.03;81.45
69225;DHT22;56333;51.306;17.056;2024-02-16T02:45:58;8.04;81.43
69225;DHT22;56333;51.306;17.056;2024-02-16T02:47:27;8.05;81.43
69225;DHT22;56333;51.306;17.056;2024-02-16T02:48:55;8.03;81.47
69225;DHT22;56333;51.306;17.056;2024-02-16T02:50:24;8.03;81.53
69225;DHT22;56333;51.306;17.056;2024-02-16T02:51:52;8.03;81.57
69225;DHT22;56333;51.306;17.056;2024-02-16T02:53:21;8.02;81.55
69225;DHT22;56333;51.306;17.056;2024-02-16T02:54:50;8.02;81.68
69225;DHT22;56333;51.306;17.056;2024-02-16T02:56:19;8.01;81.60
69225;DHT22;56333;51.306;17.056;2024-02-16T02:57:47;7.99;81.68
69225;DHT22;56333;51.306;17.056;2024-02-16T02:59:15;8.01;81.70
69225;DHT22;56333;51.306;17.056;2024-02-16T03:00:45;8.00;81.68
69225;DHT22;56333;51.306;17.056;2024-02-16T03:02:13;8.00;81.70
69225;DHT22;56333;51.306;17.056;2024-02-16T03:03:41;8.03;81.72
69225;DHT22;56333;51.306;17.056;2024-02-16T03:05:11;8.02;81.80
69225;DHT22;56333;51.306;17.056;2024-02-16T03:06:40;8.01;81.70
69225;DHT22;56333;51.306;17.056;2024-02-16T03:08:08;8.01;81.70
69225;DHT22;56333;51.306;17.056;2024-02-16T03:09:37;8.01;81.70
69225;DHT22;56333;51.306;17.056;2024-02-16T03:11:07;8.02;81.68
69225;DHT22;56333;51.306;17.056;2024-02-16T03:12:36;8.01;81.68
69225;DHT22;56333;51.306;17.056;2024-02-16T03:14:04;8.03;81.65
69225;DHT22;56333;51.306;17.056;2024-02-16T03:15:32;8.03;81.70
69225;DHT22;56333;51.306;17.056;2024-02-16T03:17:01;8.06;81.65
69225;DHT22;56333;51.306;17.056;2024-02-16T03:18:32;8.05;81.60
69225;DHT22;56333;51.306;17.056;2024-02-16T03:20:00;8.04;81.60
69225;DHT22;56333;51.306;17.056;2024-02-16T03:21:29;8.02;81.57
69225;DHT22;56333;51.306;17.056;2024-02-16T03:22:58;8.01;81.50
69225;DHT22;56333;51.306;17.056;2024-02-16T03:24:27;8.02;81.53
69225;DHT22;56333;51.306;17.056;2024-02-16T03:25:55;8.02;81.50
69225;DHT22;56333;51.306;17.056;2024-02-16T03:27:24;8.01;81.55
69225;DHT22;56333;51.306;17.056;2024-02-16T03:28:53;8.01;81.60
69225;DHT22;56333;51.306;17.056;2024-02-16T03:30:21;8.00;81.60
69225;DHT22;56333;51.306;17.056;2024-02-16T03:31:51;8.00;81.60
69225;DHT22;56333;51.306;17.056;2024-02-16T03:33:20;8.01;81.60
69225;DHT22;56333;51.306;17.056;2024-02-16T03:34:48;8.01;81.60
69225;DHT22;56333;51.306;17.056;2024-02-16T03:36:18;8.02;81.60
69225;DHT22;56333;51.306;17.056;2024-02-16T03:37:47;8.02;81.57
69225;DHT22;56333;51.306;17.056;2024-02-16T03:39:15;8.04;81.55
69225;DHT22;56333;51.306;17.056;2024-02-16T03:40:44;8.05;81.60
69225;DHT22;56333;51.306;17.056;2024-02-16T03:42:13;8.06;81.53
69225;DHT22;56333;51.306;17.056;2024-02-16T03:43:41;8.06;81.40
69225;DHT22;56333;51.306;17.056;2024-02-16T03:45:11;8.06;81.38
69225;DHT22;56333;51.306;17.056;2024-02-16T03:46:40;8.07;81.32
69225;DHT22;56333;51.306;17.056;2024-02-16T03:48:09;8.06;81.30
69225;DHT22;56333;51.306;17.056;2024-02-16T03:49:38;8.05;81.20
69225;DHT22;56333;51.306;17.056;2024-02-16T03:51:09;8.05;81.22
69225;DHT22;56333;51.306;17.056;2024-02-16T03:52:36;7.99;81.22
69225;DHT22;56333;51.306;17.056;2024-02-16T03:54:05;7.99;81.20
69225;DHT22;56333;51.306;17.056;2024-02-16T03:55:34;7.98;81.20
69225;DHT22;56333;51.306;17.056;2024-02-16T03:57:03;7.99;81.28
69225;DHT22;56333;51.306;17.056;2024-02-16T03:58:35;7.98;81.30
69225;DHT22;56333;51.306;17.056;2024-02-16T04:00:06;7.97;81.22
69225;DHT22;56333;51.306;17.056;2024-02-16T04:01:38;7.96;81.22
69225;DHT22;56333;51.306;17.056;2024-02-16T04:03:07;7.96;81.28
69225;DHT22;56333;51.306;17.056;2024-02-16T04:04:35;7.93;81.38
69225;DHT22;56333;51.306;17.056;2024-02-16T04:06:05;7.91;81.38
69225;DHT22;56333;51.306;17.056;2024-02-16T04:07:34;7.89;81.40
69225;DHT22;56333;51.306;17.056;2024-02-16T04:09:02;7.90;81.50
69225;DHT22;56333;51.306;17.056;2024-02-16T04:10:31;7.89;81.60
69225;DHT22;56333;51.306;17.056;2024-02-16T04:12:00;7.89;81.63
69225;DHT22;56333;51.306;17.056;2024-02-16T04:13:30;7.89;81.72
69225;DHT22;56333;51.306;17.056;2024-02-16T04:14:58;7.89;81.80
69225;DHT22;56333;51.306;17.056;2024-02-16T04:16:27;7.89;81.80
69225;DHT22;56333;51.306;17.056;2024-02-16T04:17:56;7.91;81.82
69225;DHT22;56333;51.306;17.056;2024-02-16T04:19:25;7.91;81.82
69225;DHT22;56333;51.306;17.056;2024-02-16T04:20:53;7.92;81.88
69225;DHT22;56333;51.306;17.056;2024-02-16T04:22:23;7.93;81.88
69225;DHT22;56333;51.306;17.056;2024-02-16T04:23:51;7.92;81.90
69225;DHT22;56333;51.306;17.056;2024-02-16T04:25:20;7.95;81.93
69225;DHT22;56333;51.306;17.056;2024-02-16T04:26:48;7.95;81.95
69225;DHT22;56333;51.306;17.056;2024-02-16T04:28:17;7.97;81.95
69225;DHT22;56333;51.306;17.056;2024-02-16T04:29:45;7.99;81.95
69225;DHT22;56333;51.306;17.056;2024-02-16T04:31:14;7.99;81.97
69225;DHT22;56333;51.306;17.056;2024-02-16T04:32:42;7.99;81.93
69225;DHT22;56333;51.306;17.056;2024-02-16T04:34:12;7.99;81.90
69225;DHT22;56333;51.306;17.056;2024-02-16T04:35:41;8.01;81.90
69225;DHT22;56333;51.306;17.056;2024-02-16T04:37:10;8.03;81.93
69225;DHT22;56333;51.306;17.056;2024-02-16T04:38:39;8.03;81.93
69225;DHT22;56333;51.306;17.056;2024-02-16T04:40:09;8.05;81.90
69225;DHT22;56333;51.306;17.056;2024-02-16T04:41:39;8.03;81.85
69225;DHT22;56333;51.306;17.056;2024-02-16T04:43:06;8.02;81.80
69225;DHT22;56333;51.306;17.056;2024-02-16T04:44:37;8.02;81.80
69225;DHT22;56333;51.306;17.056;2024-02-16T04:46:06;8.02;81.75
69225;DHT22;56333;51.306;17.056;2024-02-16T04:47:40;8.03;81.70
69225;DHT22;56333;51.306;17.056;2024-02-16T04:49:09;8.04;81.70
69225;DHT22;56333;51.306;17.056;2024-02-16T04:50:37;8.05;81.68
69225;DHT22;56333;51.306;17.056;2024-02-16T04:52:06;8.06;81.60
69225;DHT22;56333;51.306;17.056;2024-02-16T04:53:35;8.05;81.60
69225;DHT22;56333;51.306;17.056;2024-02-16T04:55:04;8.06;81.50
69225;DHT22;56333;51.306;17.056;2024-02-16T04:56:33;8.06;81.50
69225;DHT22;56333;51.306;17.056;2024-02-16T04:58:03;8.07;81.50
69225;DHT22;56333;51.306;17.056;2024-02-16T04:59:33;8.09;81.50
69225;DHT22;56333;51.306;17.056;2024-02-16T05:01:02;8.10;81.40
69225;DHT22;56333;51.306;17.056;2024-02-16T05:02:30;8.08;81.35
69225;DHT22;56333;51.306;17.056;2024-02-16T05:04:00;8.09;81.30
69225;DHT22;56333;51.306;17.056;2024-02-16T05:05:28;8.06;81.22
69225;DHT22;56333;51.306;17.056;2024-02-16T05:06:57;8.05;81.20
69225;DHT22;56333;51.306;17.056;2024-02-16T05:08:26;8.00;81.22
69225;DHT22;56333;51.306;17.056;2024-02-16T05:09:56;7.97;81.20
69225;DHT22;56333;51.306;17.056;2024-02-16T05:11:25;7.93;81.32
69225;DHT22;56333;51.306;17.056;2024-02-16T05:12:54;7.91;81.30
69225;DHT22;56333;51.306;17.056;2024-02-16T05:14:23;7.89;81.30
69225;DHT22;56333;51.306;17.056;2024-02-16T05:15:52;7.87;81.30
69225;DHT22;56333;51.306;17.056;2024-02-16T05:17:21;7.87;81.25
69225;DHT22;56333;51.306;17.056;2024-02-16T05:18:49;7.87;81.20
69225;DHT22;56333;51.306;17.056;2024-02-16T05:20:18;7.85;81.25
69225;DHT22;56333;51.306;17.056;2024-02-16T05:21:46;7.85;81.28
69225;DHT22;56333;51.306;17.056;2024-02-16T05:23:15;7.85;81.25
69225;DHT22;56333;51.306;17.056;2024-02-16T05:24:44;7.84;81.22
69225;DHT22;56333;51.306;17.056;2024-02-16T05:26:13;7.84;81.20
69225;DHT22;56333;51.306;17.056;2024-02-16T05:27:41;7.84;81.20
69225;DHT22;56333;51.306;17.056;2024-02-16T05:29:12;7.84;81.18
69225;DHT22;56333;51.306;17.056;2024-02-16T05:30:40;7.82;81.20
69225;DHT22;56333;51.306;17.056;2024-02-16T05:32:09;7.82;81.18
69225;DHT22;56333;51.306;17.056;2024-02-16T05:33:38;7.82;81.15
69225;DHT22;56333;51.306;17.056;2024-02-16T05:35:08;7.80;81.10
69225;DHT22;56333;51.306;17.056;2024-02-16T05:36:38;7.82;81.20
69225;DHT22;56333;51.306;17.056;2024-02-16T05:38:06;7.80;81.10
69225;DHT22;56333;51.306;17.056;2024-02-16T05:39:45;7.82;81.10
69225;DHT22;56333;51.306;17.056;2024-02-16T05:41:20;7.81;81.10
69225;DHT22;56333;51.306;17.056;2024-02-16T05:42:50;7.81;81.05
69225;DHT22;56333;51.306;17.056;2024-02-16T05:44:21;7.80;81.03
69225;DHT22;56333;51.306;17.056;2024-02-16T05:45:51;7.79;81.00
69225;DHT22;56333;51.306;17.056;2024-02-16T05:47:20;7.79;81.00
69225;DHT22;56333;51.306;17.056;2024-02-16T05:48:48;7.74;81.00
69225;DHT22;56333;51.306;17.056;2024-02-16T05:50:17;7.77;81.00
69225;DHT22;56333;51.306;17.056;2024-02-16T05:51:47;7.74;81.05
69225;DHT22;56333;51.306;17.056;2024-02-16T05:53:41;7.71;81.03
69225;DHT22;56333;51.306;17.056;2024-02-16T05:55:11;7.71;81.07
69225;DHT22;56333;51.306;17.056;2024-02-16T05:56:42;7.69;81.07
69225;DHT22;56333;51.306;17.056;2024-02-16T05:58:12;7.70;81.05
69225;DHT22;56333;51.306;17.056;2024-02-16T05:59:42;7.68;81.03
69225;DHT22;56333;51.306;17.056;2024-02-16T06:01:11;7.69;81.03
69225;DHT22;56333;51.306;17.056;2024-02-16T06:02:39;7.68;81.07
69225;DHT22;56333;51.306;17.056;2024-02-16T06:04:08;7.68;81.10
69225;DHT22;56333;51.306;17.056;2024-02-16T06:05:36;7.68;81.10
69225;DHT22;56333;51.306;17.056;2024-02-16T06:07:07;7.69;81.18
69225;DHT22;56333;51.306;17.056;2024-02-16T06:08:36;7.72;81.15
69225;DHT22;56333;51.306;17.056;2024-02-16T06:10:06;7.70;81.22
69225;DHT22;56333;51.306;17.056;2024-02-16T06:11:37;7.72;81.18
69225;DHT22;56333;51.306;17.056;2024-02-16T06:13:06;7.74;81.15
69225;DHT22;56333;51.306;17.056;2024-02-16T06:14:35;7.73;81.10
69225;DHT22;56333;51.306;17.056;2024-02-16T06:16:06;7.73;81.20
69225;DHT22;56333;51.306;17.056;2024-02-16T06:17:35;7.74;81.20
69225;DHT22;56333;51.306;17.056;2024-02-16T06:19:04;7.76;81.22
69225;DHT22;56333;51.306;17.056;2024-02-16T06:20:34;7.73;81.38
69225;DHT22;56333;51.306;17.056;2024-02-16T06:22:03;7.72;81.30
69225;DHT22;56333;51.306;17.056;2024-02-16T06:23:32;7.74;81.35
69225;DHT22;56333;51.306;17.056;2024-02-16T06:25:00;7.75;81.32
69225;DHT22;56333;51.306;17.056;2024-02-16T06:26:30;7.73;81.38
69225;DHT22;56333;51.306;17.056;2024-02-16T06:27:59;7.72;81.47
69225;DHT22;56333;51.306;17.056;2024-02-16T06:29:29;7.72;81.40
69225;DHT22;56333;51.306;17.056;2024-02-16T06:30:58;7.70;81.60
69225;DHT22;56333;51.306;17.056;2024-02-16T06:32:26;7.68;81.65
69225;DHT22;56333;51.306;17.056;2024-02-16T06:33:56;7.68;81.65
69225;DHT22;56333;51.306;17.056;2024-02-16T06:35:24;7.67;81.70
69225;DHT22;56333;51.306;17.056;2024-02-16T06:36:52;7.66;81.78
69225;DHT22;56333;51.306;17.056;2024-02-16T06:38:21;7.68;81.70
69225;DHT22;56333;51.306;17.056;2024-02-16T06:39:49;7.68;81.75
69225;DHT22;56333;51.306;17.056;2024-02-16T06:41:18;7.68;81.70
69225;DHT22;56333;51.306;17.056;2024-02-16T06:42:46;7.69;81.80
69225;DHT22;56333;51.306;17.056;2024-02-16T06:44:15;7.72;81.70
69225;DHT22;56333;51.306;17.056;2024-02-16T06:45:44;7.75;81.80
69225;DHT22;56333;51.306;17.056;2024-02-16T06:47:12;7.76;81.70
69225;DHT22;56333;51.306;17.056;2024-02-16T06:48:43;7.78;81.80
69225;DHT22;56333;51.306;17.056;2024-02-16T06:50:12;7.80;81.72
69225;DHT22;56333;51.306;17.056;2024-02-16T06:51:40;7.82;81.70
69225;DHT22;56333;51.306;17.056;2024-02-16T06:53:10;7.84;81.68
69225;DHT22;56333;51.306;17.056;2024-02-16T06:54:38;7.85;81.70
69225;DHT22;56333;51.306;17.056;2024-02-16T06:56:08;7.89;81.60
69225;DHT22;56333;51.306;17.056;2024-02-16T06:57:36;7.90;81.60
69225;DHT22;56333;51.306;17.056;2024-02-16T06:59:04;7.93;81.50
69225;DHT22;56333;51.306;17.056;2024-02-16T07:00:33;7.92;81.57
69225;DHT22;56333;51.306;17.056;2024-02-16T07:02:02;7.93;81.47
69225;DHT22;56333;51.306;17.056;2024-02-16T07:03:31;7.94;81.47
69225;DHT22;56333;51.306;17.056;2024-02-16T07:05:00;7.95;81.43
69225;DHT22;56333;51.306;17.056;2024-02-16T07:06:30;7.95;81.32
69225;DHT22;56333;51.306;17.056;2024-02-16T07:07:58;7.94;81.30
69225;DHT22;56333;51.306;17.056;2024-02-16T07:09:28;7.93;81.35
69225;DHT22;56333;51.306;17.056;2024-02-16T07:10:57;7.93;81.30
69225;DHT22;56333;51.306;17.056;2024-02-16T07:12:27;7.94;81.35
69225;DHT22;56333;51.306;17.056;2024-02-16T07:13:58;7.94;81.30
69225;DHT22;56333;51.306;17.056;2024-02-16T07:15:28;7.94;81.32
69225;DHT22;56333;51.306;17.056;2024-02-16T07:16:56;7.97;81.38
69225;DHT22;56333;51.306;17.056;2024-02-16T07:18:25;7.97;81.40
69225;DHT22;56333;51.306;17.056;2024-02-16T07:19:54;7.98;81.40
69225;DHT22;56333;51.306;17.056;2024-02-16T07:21:22;7.99;81.40
69225;DHT22;56333;51.306;17.056;2024-02-16T07:22:51;8.02;81.40
69225;DHT22;56333;51.306;17.056;2024-02-16T07:24:20;8.02;81.32
69225;DHT22;56333;51.306;17.056;2024-02-16T07:25:48;8.04;81.32
69225;DHT22;56333;51.306;17.056;2024-02-16T07:27:19;8.04;81.32
69225;DHT22;56333;51.306;17.056;2024-02-16T07:28:48;8.05;81.30
69225;DHT22;56333;51.306;17.056;2024-02-16T07:30:17;8.07;81.38
69225;DHT22;56333;51.306;17.056;2024-02-16T07:31:46;8.08;81.35
69225;DHT22;56333;51.306;17.056;2024-02-16T07:33:16;8.09;81.35
69225;DHT22;56333;51.306;17.056;2024-02-16T07:34:48;8.10;81.38
69225;DHT22;56333;51.306;17.056;2024-02-16T07:36:16;8.13;81.38
69225;DHT22;56333;51.306;17.056;2024-02-16T07:37:44;8.14;81.43
69225;DHT22;56333;51.306;17.056;2024-02-16T07:39:16;8.14;81.43
69225;DHT22;56333;51.306;17.056;2024-02-16T07:40:47;8.14;81.40
69225;DHT22;56333;51.306;17.056;2024-02-16T07:42:15;8.17;81.40
69225;DHT22;56333;51.306;17.056;2024-02-16T07:43:44;8.19;81.38
69225;DHT22;56333;51.306;17.056;2024-02-16T07:45:13;8.20;81.38
69225;DHT22;56333;51.306;17.056;2024-02-16T07:46:44;8.22;81.47
69225;DHT22;56333;51.306;17.056;2024-02-16T07:48:15;8.23;81.43
69225;DHT22;56333;51.306;17.056;2024-02-16T07:49:43;8.24;81.38
69225;DHT22;56333;51.306;17.056;2024-02-16T07:51:12;8.26;81.32
69225;DHT22;56333;51.306;17.056;2024-02-16T07:52:40;8.27;81.32
69225;DHT22;56333;51.306;17.056;2024-02-16T07:54:09;8.29;81.30
69225;DHT22;56333;51.306;17.056;2024-02-16T07:55:38;8.29;81.35
69225;DHT22;56333;51.306;17.056;2024-02-16T07:57:07;8.30;81.30
69225;DHT22;56333;51.306;17.056;2024-02-16T07:58:36;8.32;81.30
69225;DHT22;56333;51.306;17.056;2024-02-16T08:00:06;8.34;81.28
69225;DHT22;56333;51.306;17.056;2024-02-16T08:01:36;8.36;81.32
69225;DHT22;56333;51.306;17.056;2024-02-16T08:03:05;8.37;81.30
69225;DHT22;56333;51.306;17.056;2024-02-16T08:04:33;8.39;81.20
69225;DHT22;56333;51.306;17.056;2024-02-16T08:06:05;8.41;81.18
69225;DHT22;56333;51.306;17.056;2024-02-16T08:07:34;8.45;81.10
69225;DHT22;56333;51.306;17.056;2024-02-16T08:09:03;8.50;81.10
69225;DHT22;56333;51.306;17.056;2024-02-16T08:10:31;8.52;81.07
69225;DHT22;56333;51.306;17.056;2024-02-16T08:12:00;8.55;80.93
69225;DHT22;56333;51.306;17.056;2024-02-16T08:13:30;8.59;80.95
69225;DHT22;56333;51.306;17.056;2024-02-16T08:14:58;8.63;80.93
69225;DHT22;56333;51.306;17.056;2024-02-16T08:16:28;8.66;80.75
69225;DHT22;56333;51.306;17.056;2024-02-16T08:17:58;8.70;80.78
69225;DHT22;56333;51.306;17.056;2024-02-16T08:19:32;8.73;80.75
69225;DHT22;56333;51.306;17.056;2024-02-16T08:21:02;8.78;80.78
69225;DHT22;56333;51.306;17.056;2024-02-16T08:22:31;8.80;80.60
69225;DHT22;56333;51.306;17.056;2024-02-16T08:24:00;8.84;80.60
69225;DHT22;56333;51.306;17.056;2024-02-16T08:25:30;8.87;80.60
69225;DHT22;56333;51.306;17.056;2024-02-16T08:26:58;8.91;80.53
69225;DHT22;56333;51.306;17.056;2024-02-16T08:28:26;8.98;80.50
69225;DHT22;56333;51.306;17.056;2024-02-16T08:29:55;9.02;80.43
69225;DHT22;56333;51.306;17.056;2024-02-16T08:31:26;9.08;80.40
69225;DHT22;56333;51.306;17.056;2024-02-16T08:32:55;9.13;80.43
69225;DHT22;56333;51.306;17.056;2024-02-16T08:34:24;9.20;80.38
69225;DHT22;56333;51.306;17.056;2024-02-16T08:35:52;9.27;80.18
69225;DHT22;56333;51.306;17.056;2024-02-16T08:37:21;9.33;80.00
69225;DHT22;56333;51.306;17.056;2024-02-16T08:38:49;9.41;79.88
69225;DHT22;56333;51.306;17.056;2024-02-16T08:40:18;9.46;79.45
69225;DHT22;56333;51.306;17.056;2024-02-16T08:41:47;9.55;79.43
69225;DHT22;56333;51.306;17.056;2024-02-16T08:43:16;9.63;79.38
69225;DHT22;56333;51.306;17.056;2024-02-16T08:44:44;9.70;79.00
69225;DHT22;56333;51.306;17.056;2024-02-16T08:46:13;9.78;78.78
69225;DHT22;56333;51.306;17.056;2024-02-16T08:47:43;9.85;78.60
69225;DHT22;56333;51.306;17.056;2024-02-16T08:49:11;9.93;78.05
69225;DHT22;56333;51.306;17.056;2024-02-16T08:50:41;10.00;78.22
69225;DHT22;56333;51.306;17.056;2024-02-16T08:52:09;10.09;78.05
69225;DHT22;56333;51.306;17.056;2024-02-16T08:53:39;10.15;77.63
69225;DHT22;56333;51.306;17.056;2024-02-16T08:55:08;10.22;77.30
69225;DHT22;56333;51.306;17.056;2024-02-16T08:56:37;10.28;77.18
69225;DHT22;56333;51.306;17.056;2024-02-16T08:58:08;10.35;77.25
69225;DHT22;56333;51.306;17.056;2024-02-16T08:59:37;10.45;77.28
69225;DHT22;56333;51.306;17.056;2024-02-16T09:01:06;10.52;77.30
69225;DHT22;56333;51.306;17.056;2024-02-16T09:02:34;10.61;76.80
69225;DHT22;56333;51.306;17.056;2024-02-16T09:04:03;10.68;76.38
69225;DHT22;56333;51.306;17.056;2024-02-16T09:05:31;10.74;75.93
69225;DHT22;56333;51.306;17.056;2024-02-16T09:07:01;10.80;76.07
69225;DHT22;56333;51.306;17.056;2024-02-16T09:08:30;10.88;75.95
69225;DHT22;56333;51.306;17.056;2024-02-16T09:09:59;10.98;76.05
69225;DHT22;56333;51.306;17.056;2024-02-16T09:11:29;11.04;76.05
69225;DHT22;56333;51.306;17.056;2024-02-16T09:12:58;11.10;75.68
69225;DHT22;56333;51.306;17.056;2024-02-16T09:14:27;11.17;75.22
69225;DHT22;56333;51.306;17.056;2024-02-16T09:15:55;11.23;75.40
69225;DHT22;56333;51.306;17.056;2024-02-16T09:17:24;11.28;74.38
69225;DHT22;56333;51.306;17.056;2024-02-16T09:18:52;11.35;74.22
69225;DHT22;56333;51.306;17.056;2024-02-16T09:20:21;11.40;74.18
69225;DHT22;56333;51.306;17.056;2024-02-16T09:21:49;11.46;74.05
69225;DHT22;56333;51.306;17.056;2024-02-16T09:23:18;11.49;72.63